Time;durP1;ratioP1;P1;durP2;ratioP2;P2;SDS_P1;SDS_P2;PMS_P1;PMS_P2;Temp;Humidity;BMP_temperature;BMP_pressure;BME280_temperature;BME280_humidity;BME280_pressure;Samples;Min_cycle;Max_cycle;Signal;HPM_P1;HPM_P2
2024/01/21 00:00:43;;;;;;;2.95;0.85;;;5.40;1.00;;;;;;5029364;28;20048;-78
2024/01/21 00:03:10;;;;;;;2.85;1.23;;;5.40;1.00;;;;;;5062944;28;20062;-79
2024/01/21 00:05:38;;;;;;;0.65;0.60;;;5.40;1.00;;;;;;5029716;28;20048;-79
2024/01/21 00:08:05;;;;;;;1.45;0.80;;;5.40;1.00;;;;;;5028303;28;20044;-78
2024/01/21 00:10:32;;;;;;;1.15;0.70;;;5.40;1.00;;;;;;5029424;28;20063;-81
2024/01/21 00:12:59;;;;;;;1.77;0.90;;;5.40;1.00;;;;;;5021479;28;20045;-80
2024/01/21 00:15:26;;;;;;;2.42;0.82;;;5.40;1.00;;;;;;5037864;28;20550;-81
2024/01/21 00:17:53;;;;;;;1.25;0.90;;;5.40;1.00;;;;;;5027691;28;20521;-82
2024/01/21 00:20:20;;;;;;;2.80;1.20;;;5.40;1.00;;;;;;5027742;28;20052;-79
2024/01/21 00:22:48;;;;;;;1.77;1.00;;;5.50;1.00;;;;;;5036108;28;20044;-79
2024/01/21 00:25:15;;;;;;;2.65;1.27;;;5.40;1.00;;;;;;5078011;28;20066;-79
2024/01/21 00:27:42;;;;;;;2.55;1.00;;;5.40;1.00;;;;;;5047673;28;20076;-77
2024/01/21 00:30:09;;;;;;;1.52;0.73;;;5.40;1.00;;;;;;5063395;28;20056;-80
2024/01/21 00:32:36;;;;;;;1.70;0.90;;;5.40;1.00;;;;;;5064833;28;20058;-77
2024/01/21 00:35:03;;;;;;;2.40;1.00;;;5.40;1.00;;;;;;5064614;28;20087;-77
2024/01/21 00:37:31;;;;;;;1.58;1.25;;;5.50;1.00;;;;;;5083342;28;20157;-77
2024/01/21 00:39:58;;;;;;;0.98;0.63;;;5.40;1.00;;;;;;5027677;28;20060;-77
2024/01/21 00:42:24;;;;;;;2.15;1.08;;;5.50;1.00;;;;;;5062759;28;20094;-79
2024/01/21 00:44:51;;;;;;;1.88;1.23;;;5.50;1.00;;;;;;5048293;28;20052;-78
2024/01/21 00:47:20;;;;;;;1.92;1.08;;;5.50;1.00;;;;;;5042549;28;20056;-78
2024/01/21 00:49:47;;;;;;;2.33;1.20;;;5.50;1.00;;;;;;5028534;28;20052;-82
2024/01/21 00:52:14;;;;;;;2.13;1.30;;;5.50;1.00;;;;;;5033649;28;20506;-78
2024/01/21 00:54:41;;;;;;;1.90;1.20;;;5.50;1.00;;;;;;5028837;28;20112;-77
2024/01/21 00:57:08;;;;;;;2.25;1.48;;;5.50;1.00;;;;;;5028875;28;20559;-76
2024/01/21 00:59:35;;;;;;;3.72;1.73;;;5.50;1.00;;;;;;5044090;28;20503;-78
2024/01/21 01:02:02;;;;;;;4.30;1.88;;;5.50;1.00;;;;;;5044620;28;20076;-77
2024/01/21 01:04:29;;;;;;;2.67;1.40;;;5.50;1.00;;;;;;5022858;28;20056;-78
2024/01/21 01:06:56;;;;;;;2.30;1.35;;;5.50;1.00;;;;;;5011689;28;20059;-77
2024/01/21 01:09:23;;;;;;;4.40;1.85;;;5.50;1.00;;;;;;5043971;28;20145;-78
2024/01/21 01:11:50;;;;;;;4.45;1.77;;;5.50;1.00;;;;;;5011477;28;20048;-78
2024/01/21 01:14:17;;;;;;;2.92;1.70;;;5.50;1.00;;;;;;5033117;28;20049;-82
2024/01/21 01:16:44;;;;;;;2.53;1.70;;;5.50;1.00;;;;;;5044511;28;20553;-78
2024/01/21 01:19:11;;;;;;;3.50;1.75;;;5.50;1.00;;;;;;5027824;28;20048;-76
2024/01/21 01:21:38;;;;;;;2.47;1.58;;;5.60;1.00;;;;;;5044860;28;20052;-79
2024/01/21 01:24:06;;;;;;;3.25;1.70;;;5.50;1.00;;;;;;5063057;28;20552;-77
2024/01/21 01:26:33;;;;;;;4.22;1.98;;;5.60;1.00;;;;;;5047827;28;20046;-78
2024/01/21 01:29:00;;;;;;;3.00;1.85;;;5.60;1.00;;;;;;5030948;28;20455;-77
2024/01/21 01:31:27;;;;;;;2.40;1.27;;;5.60;1.00;;;;;;5048817;28;20445;-77
2024/01/21 01:33:55;;;;;;;2.42;1.23;;;5.60;1.00;;;;;;5047141;28;20067;-76
2024/01/21 01:36:22;;;;;;;2.45;1.20;;;5.60;1.00;;;;;;5082200;28;20562;-77
2024/01/21 01:38:49;;;;;;;2.17;1.30;;;5.60;1.00;;;;;;5030160;28;20067;-81
2024/01/21 01:41:16;;;;;;;2.72;1.30;;;5.60;1.00;;;;;;5082714;28;20241;-77
2024/01/21 01:43:43;;;;;;;1.83;1.23;;;5.60;1.00;;;;;;5030022;28;20113;-83
2024/01/21 01:46:10;;;;;;;3.15;1.65;;;5.60;1.00;;;;;;5027867;28;20086;-77
2024/01/21 01:48:37;;;;;;;2.00;1.27;;;5.60;1.00;;;;;;5027776;28;20052;-79
2024/01/21 01:51:04;;;;;;;2.58;1.40;;;5.60;1.00;;;;;;5043963;28;20098;-78
2024/01/21 01:53:31;;;;;;;2.83;1.50;;;5.60;1.00;;;;;;5060743;28;20060;-78
2024/01/21 01:55:58;;;;;;;3.60;1.75;;;5.60;1.00;;;;;;5027950;28;20474;-80
2024/01/21 01:58:27;;;;;;;3.83;2.35;;;5.60;1.00;;;;;;5026618;28;20053;-78
2024/01/21 02:00:54;;;;;;;2.50;1.88;;;5.60;1.00;;;;;;5062538;28;20416;-78
2024/01/21 02:03:23;;;;;;;3.65;2.00;;;5.60;1.00;;;;;;5043743;28;20472;-78
2024/01/21 02:05:50;;;;;;;4.47;2.53;;;5.70;1.00;;;;;;5011434;28;20060;-78
2024/01/21 02:08:17;;;;;;;3.20;2.13;;;5.70;1.00;;;;;;5026705;28;20311;-78
2024/01/21 02:10:44;;;;;;;4.82;2.40;;;5.70;1.00;;;;;;5027843;28;20119;-78
2024/01/21 02:13:11;;;;;;;2.72;2.08;;;5.70;1.00;;;;;;5017283;28;20110;-78
2024/01/21 02:15:38;;;;;;;3.08;1.98;;;5.60;1.00;;;;;;5044051;28;20055;-78
2024/01/21 02:18:05;;;;;;;2.63;1.77;;;5.60;1.00;;;;;;5030353;28;20411;-78
2024/01/21 02:20:33;;;;;;;3.58;2.25;;;5.60;1.00;;;;;;5047754;28;20135;-79
2024/01/21 02:23:02;;;;;;;3.13;2.00;;;5.60;1.00;;;;;;5030213;28;20056;-81
2024/01/21 02:25:28;;;;;;;2.65;1.95;;;5.60;1.00;;;;;;5047292;28;20056;-81
2024/01/21 02:27:55;;;;;;;3.85;2.35;;;5.60;1.00;;;;;;5031409;28;20052;-78
2024/01/21 02:33:04;;;;;;;4.82;2.10;;;5.50;1.00;;;;;;5003478;28;20529;-80
2024/01/21 02:35:31;;;;;;;3.15;1.90;;;5.50;1.00;;;;;;4989566;28;20419;-80
2024/01/21 02:37:57;;;;;;;2.53;1.95;;;5.50;1.00;;;;;;4988409;28;20132;-81
2024/01/21 02:40:24;;;;;;;2.55;1.85;;;5.50;1.00;;;;;;4988842;28;20054;-81
2024/01/21 02:42:51;;;;;;;4.28;2.28;;;5.50;1.00;;;;;;4989391;28;20057;-81
2024/01/21 02:45:19;;;;;;;4.90;2.40;;;5.50;1.00;;;;;;5004167;28;20593;-80
2024/01/21 02:47:45;;;;;;;4.57;2.45;;;5.40;1.00;;;;;;5005294;28;20205;-80
2024/01/21 02:50:12;;;;;;;3.05;1.88;;;5.40;1.00;;;;;;4988975;28;20060;-81
2024/01/21 02:52:39;;;;;;;2.85;1.90;;;5.40;1.00;;;;;;5004946;28;20117;-81
2024/01/21 02:55:06;;;;;;;4.57;2.67;;;5.30;1.00;;;;;;5004540;28;20069;-80
2024/01/21 02:57:34;;;;;;;5.63;2.95;;;5.30;1.00;;;;;;5005583;28;20472;-80
2024/01/21 03:00:04;;;;;;;3.78;2.72;;;5.30;1.00;;;;;;5005770;28;20128;-81
2024/01/21 03:02:31;;;;;;;5.38;3.05;;;5.20;1.00;;;;;;4972940;28;20096;-80
2024/01/21 03:04:58;;;;;;;5.13;2.97;;;5.20;1.00;;;;;;4988642;28;20056;-81
2024/01/21 03:07:27;;;;;;;4.55;2.85;;;5.20;1.00;;;;;;5004964;28;20132;-81
2024/01/21 03:09:54;;;;;;;3.75;2.53;;;5.20;1.00;;;;;;4988007;28;20041;-81
2024/01/21 03:12:20;;;;;;;4.85;3.35;;;5.20;1.00;;;;;;4989211;28;20054;-81
2024/01/21 03:14:47;;;;;;;5.55;3.10;;;5.10;1.00;;;;;;4987760;28;20444;-80
2024/01/21 03:17:14;;;;;;;4.95;2.95;;;5.10;1.00;;;;;;4989308;28;20054;-80
2024/01/21 03:19:41;;;;;;;4.78;3.20;;;5.10;1.00;;;;;;4972454;28;20077;-80
2024/01/21 03:22:08;;;;;;;5.22;2.72;;;5.10;1.00;;;;;;4956323;28;20050;-80
2024/01/21 03:24:36;;;;;;;5.45;3.22;;;5.10;12.50;;;;;;4971256;28;20716;-80
2024/01/21 03:27:03;;;;;;;5.78;3.70;;;5.00;57.80;;;;;;4988592;28;20126;-80
2024/01/21 03:29:30;;;;;;;5.15;2.95;;;5.00;99.90;;;;;;4971169;28;20054;-80
2024/01/21 03:31:57;;;;;;;5.18;2.92;;;5.00;99.90;;;;;;4987961;28;20484;-80
2024/01/21 03:34:23;;;;;;;5.82;3.13;;;5.00;99.90;;;;;;4971938;28;20057;-81
2024/01/21 03:36:51;;;;;;;4.90;3.13;;;5.00;99.90;;;;;;4972072;28;20182;-79
2024/01/21 03:39:18;;;;;;;3.75;2.85;;;5.00;99.90;;;;;;4968239;28;20053;-80
2024/01/21 03:41:45;;;;;;;4.13;2.92;;;5.10;1.00;;;;;;4975410;28;20057;-80
2024/01/21 03:44:12;;;;;;;4.82;2.67;;;5.10;50.10;;;;;;4989375;28;20515;-80
2024/01/21 03:46:39;;;;;;;4.22;2.30;;;5.00;99.90;;;;;;4971531;28;20054;-80
2024/01/21 03:49:06;;;;;;;4.57;2.67;;;5.00;99.90;;;;;;4971200;28;20050;-81
2024/01/21 03:51:33;;;;;;;3.90;2.75;;;5.10;99.90;;;;;;4971521;28;20050;-80
2024/01/21 03:53:59;;;;;;;3.78;2.55;;;5.00;99.90;;;;;;4969948;28;20046;-81
2024/01/21 03:56:26;;;;;;;4.55;2.35;;;5.10;1.00;;;;;;4987290;28;20112;-80
2024/01/21 03:58:53;;;;;;;6.60;2.75;;;5.10;1.00;;;;;;4955419;28;20101;-80
2024/01/21 04:01:20;;;;;;;4.30;2.75;;;5.10;1.00;;;;;;4972075;28;20486;-81
2024/01/21 04:03:47;;;;;;;2.97;1.65;;;5.20;57.70;;;;;;4955324;28;20108;-79
2024/01/21 04:06:14;;;;;;;2.60;2.10;;;5.20;99.90;;;;;;4988390;28;20058;-79
2024/01/21 04:08:41;;;;;;;3.58;1.90;;;5.20;99.90;;;;;;4970752;28;20046;-80
2024/01/21 04:11:08;;;;;;;4.05;2.83;;;5.30;99.90;;;;;;4971699;28;20455;-81
2024/01/21 04:13:35;;;;;;;3.05;2.15;;;5.30;1.00;;;;;;4955045;28;20068;-81
2024/01/21 04:16:02;;;;;;;3.75;2.47;;;5.40;1.00;;;;;;4971882;28;20097;-81
2024/01/21 04:18:29;;;;;;;3.88;1.80;;;5.50;42.50;;;;;;4954742;28;20134;-81
2024/01/21 04:21:00;;;;;;;2.15;1.45;;;5.50;99.90;;;;;;4971505;28;20053;-81
2024/01/21 04:23:27;;;;;;;3.50;1.88;;;5.50;99.90;;;;;;4955260;28;20459;-81
2024/01/21 04:25:54;;;;;;;2.83;1.63;;;5.60;99.90;;;;;;5004827;28;20623;-81
2024/01/21 04:28:25;;;;;;;3.17;1.92;;;5.70;99.90;;;;;;4955814;28;20255;-81
2024/01/21 04:30:52;;;;;;;3.13;1.60;;;5.70;99.90;;;;;;4987524;28;20054;-81
2024/01/21 04:33:21;;;;;;;4.28;1.98;;;5.80;1.00;;;;;;4955467;28;20057;-81
2024/01/21 04:35:48;;;;;;;2.70;1.63;;;5.90;47.30;;;;;;4971577;28;20085;-81
2024/01/21 04:38:15;;;;;;;3.50;2.30;;;5.90;58.70;;;;;;4970052;28;20092;-81
2024/01/21 04:40:42;;;;;;;2.95;1.80;;;6.00;99.90;;;;;;4986387;28;20064;-81
2024/01/21 04:43:09;;;;;;;2.22;1.63;;;6.00;99.90;;;;;;4970214;28;20050;-81
2024/01/21 04:45:36;;;;;;;3.13;2.00;;;6.00;99.90;;;;;;4987123;28;20057;-82
2024/01/21 04:48:03;;;;;;;2.88;1.90;;;6.10;1.00;;;;;;4971156;28;20064;-81
2024/01/21 04:50:31;;;;;;;3.97;2.30;;;6.10;16.30;;;;;;4971112;28;20077;-81
2024/01/21 04:52:58;;;;;;;4.47;2.42;;;6.10;99.90;;;;;;4954218;28;20050;-81
2024/01/21 04:55:26;;;;;;;2.88;2.03;;;6.20;99.90;;;;;;4954286;28;20050;-81
2024/01/21 04:57:53;;;;;;;2.65;1.70;;;6.20;99.90;;;;;;4970254;28;20089;-81
2024/01/21 05:00:20;;;;;;;2.72;1.77;;;6.30;99.90;;;;;;5003564;28;20054;-82
2024/01/21 05:02:47;;;;;;;2.58;1.67;;;6.30;99.90;;;;;;5000551;28;20046;-82
2024/01/21 05:05:14;;;;;;;2.85;1.83;;;6.30;99.90;;;;;;4951380;28;20061;-81
2024/01/21 05:07:42;;;;;;;4.05;2.40;;;6.40;99.90;;;;;;4967183;28;20449;-81
2024/01/21 05:10:10;;;;;;;3.45;2.17;;;6.40;99.90;;;;;;4950492;28;20472;-81
2024/01/21 05:12:37;;;;;;;3.67;2.05;;;6.40;99.90;;;;;;4969259;28;20065;-82
2024/01/21 05:15:05;;;;;;;4.72;2.28;;;6.50;99.90;;;;;;4953902;28;20092;-81
2024/01/21 05:17:31;;;;;;;3.92;1.92;;;6.50;99.90;;;;;;4986660;28;20203;-82
2024/01/21 05:19:59;;;;;;;2.88;1.92;;;6.50;99.90;;;;;;4970024;28;20471;-81
2024/01/21 05:22:28;;;;;;;3.92;2.05;;;6.50;99.90;;;;;;4970197;28;20136;-81
2024/01/21 05:24:55;;;;;;;3.22;1.88;;;6.50;99.90;;;;;;4950458;28;20049;-81
2024/01/21 05:27:23;;;;;;;2.40;1.75;;;6.60;99.90;;;;;;4950976;28;20081;-81
2024/01/21 05:29:50;;;;;;;3.15;2.05;;;6.60;99.90;;;;;;4949941;28;20066;-81
2024/01/21 05:32:17;;;;;;;2.30;1.48;;;6.60;99.90;;;;;;4974051;28;20058;-81
2024/01/21 05:34:44;;;;;;;3.28;1.90;;;6.60;99.90;;;;;;4985550;28;20128;-82
2024/01/21 05:37:11;;;;;;;2.67;2.10;;;6.70;1.00;;;;;;5002335;28;20478;-81
2024/01/21 05:39:38;;;;;;;4.20;1.83;;;6.70;1.00;;;;;;4984491;28;20107;-81
2024/01/21 05:42:06;;;;;;;2.25;1.50;;;6.80;1.00;;;;;;4970441;28;20050;-81
2024/01/21 05:44:33;;;;;;;2.85;2.00;;;6.80;1.00;;;;;;4968213;28;20545;-81
2024/01/21 05:47:00;;;;;;;2.70;1.73;;;6.80;1.00;;;;;;4969945;28;20100;-81
2024/01/21 05:49:27;;;;;;;2.75;1.40;;;6.90;13.60;;;;;;4985413;28;20065;-81
2024/01/21 05:51:54;;;;;;;2.47;1.60;;;7.00;53.60;;;;;;4988251;28;20069;-81
2024/01/21 05:54:22;;;;;;;4.80;1.73;;;7.00;99.90;;;;;;5005104;28;20153;-80
2024/01/21 05:56:49;;;;;;;3.95;2.00;;;7.10;99.90;;;;;;5006635;28;20072;-80
2024/01/21 05:59:17;;;;;;;4.05;2.20;;;7.10;99.90;;;;;;5005579;28;20057;-79
2024/01/21 06:01:47;;;;;;;4.78;2.40;;;7.10;99.90;;;;;;4989791;28;20057;-80
2024/01/21 06:04:15;;;;;;;4.43;2.08;;;7.20;1.00;;;;;;4964377;28;20050;-80
2024/01/21 06:06:42;;;;;;;5.45;1.95;;;7.20;1.00;;;;;;4983285;28;20046;-83
2024/01/21 06:09:11;;;;;;;2.75;1.70;;;7.30;1.00;;;;;;4981646;28;20058;-80
2024/01/21 06:11:39;;;;;;;3.70;1.67;;;7.30;1.00;;;;;;4983161;28;20085;-80
2024/01/21 06:14:06;;;;;;;2.50;1.33;;;7.40;1.00;;;;;;4996914;28;20049;-80
2024/01/21 06:16:33;;;;;;;2.55;1.52;;;7.40;1.00;;;;;;4986211;28;20885;-80
2024/01/21 06:19:00;;;;;;;3.88;1.13;;;7.40;1.00;;;;;;4986068;28;20054;-79
2024/01/21 06:21:28;;;;;;;2.80;1.50;;;7.50;66.30;;;;;;4985910;28;20422;-80
2024/01/21 06:23:55;;;;;;;2.63;1.30;;;7.50;74.50;;;;;;4968589;28;20136;-80
2024/01/21 06:26:22;;;;;;;1.70;0.93;;;7.60;31.50;;;;;;4985968;28;20100;-79
2024/01/21 06:28:50;;;;;;;2.13;0.95;;;7.60;41.20;;;;;;4985196;28;20058;-79
2024/01/21 06:31:18;;;;;;;2.15;1.15;;;7.60;66.20;;;;;;4968742;28;20066;-81
2024/01/21 06:33:45;;;;;;;2.15;1.13;;;7.70;99.90;;;;;;4985572;28;20045;-80
2024/01/21 06:36:12;;;;;;;3.20;1.20;;;7.70;99.90;;;;;;4986074;28;20053;-79
2024/01/21 06:38:39;;;;;;;3.03;1.85;;;7.80;99.90;;;;;;4984409;28;20057;-80
2024/01/21 06:41:06;;;;;;;3.20;1.40;;;7.90;99.90;;;;;;4985685;28;20116;-80
2024/01/21 06:43:33;;;;;;;3.40;1.58;;;7.90;99.90;;;;;;4984862;28;20145;-80
2024/01/21 06:46:01;;;;;;;2.35;1.42;;;7.90;99.90;;;;;;4985925;28;20056;-80
2024/01/21 06:48:28;;;;;;;2.33;1.23;;;8.00;99.90;;;;;;4984957;28;20046;-80
2024/01/21 06:50:55;;;;;;;3.08;1.42;;;8.00;99.90;;;;;;4985093;28;20089;-78
2024/01/21 06:53:23;;;;;;;2.88;1.60;;;8.00;99.90;;;;;;4998166;28;20974;-79
2024/01/21 06:55:50;;;;;;;4.68;1.65;;;8.00;99.90;;;;;;4981944;28;20161;-82
2024/01/21 06:58:17;;;;;;;2.60;1.27;;;8.10;99.90;;;;;;4982230;28;20538;-79
2024/01/21 07:00:50;;;;;;;5.03;1.55;;;8.10;99.90;;;;;;4967709;28;20050;-79
2024/01/21 07:03:19;;;;;;;2.67;1.17;;;8.10;99.90;;;;;;4987426;28;20132;-79
2024/01/21 07:05:46;;;;;;;1.95;1.10;;;8.10;99.90;;;;;;4985968;28;20416;-79
2024/01/21 07:08:13;;;;;;;3.50;1.42;;;8.10;1.00;;;;;;4985917;28;20038;-79
2024/01/21 07:10:40;;;;;;;3.28;1.42;;;8.10;1.00;;;;;;4968743;28;20124;-80
2024/01/21 07:13:07;;;;;;;2.63;1.13;;;8.10;1.00;;;;;;4956652;28;20475;-79
2024/01/21 07:15:34;;;;;;;1.50;0.95;;;8.20;1.00;;;;;;4981236;28;20058;-79
2024/01/21 07:18:01;;;;;;;1.80;1.33;;;8.20;1.00;;;;;;4981629;28;20213;-79
2024/01/21 07:20:30;;;;;;;2.45;1.33;;;8.20;1.00;;;;;;5004018;28;20066;-79
2024/01/21 07:22:57;;;;;;;2.28;1.00;;;8.20;1.00;;;;;;4970531;28;20058;-79
2024/01/21 07:25:24;;;;;;;2.10;1.13;;;8.30;1.00;;;;;;5013006;28;20042;-80
2024/01/21 07:27:51;;;;;;;4.15;1.42;;;8.30;1.00;;;;;;4965246;28;20798;-81
2024/01/21 07:30:18;;;;;;;2.83;1.00;;;8.40;1.00;;;;;;5014554;28;20042;-80
2024/01/21 07:32:45;;;;;;;2.75;1.02;;;8.40;1.00;;;;;;4997524;28;20163;-80
2024/01/21 07:35:13;;;;;;;1.75;1.02;;;8.40;1.00;;;;;;4978547;28;20050;-79
2024/01/21 07:37:40;;;;;;;2.25;0.93;;;8.50;1.00;;;;;;4996128;28;20407;-79
2024/01/21 07:40:07;;;;;;;4.18;1.40;;;8.50;1.00;;;;;;5012504;28;20073;-80
2024/01/21 07:42:35;;;;;;;2.60;0.80;;;8.50;65.60;;;;;;4973735;28;20050;-79
2024/01/21 07:45:02;;;;;;;3.55;1.50;;;8.50;99.90;;;;;;4996836;28;20132;-80
2024/01/21 07:47:29;;;;;;;2.75;1.30;;;8.50;99.90;;;;;;4998529;28;20210;-80
2024/01/21 07:49:56;;;;;;;2.65;1.13;;;8.50;99.90;;;;;;4997747;28;20046;-80
2024/01/21 07:52:23;;;;;;;2.10;1.10;;;8.50;99.90;;;;;;4966186;28;20128;-80
2024/01/21 07:54:51;;;;;;;1.88;0.90;;;8.50;99.90;;;;;;4996836;28;20407;-80
2024/01/21 07:57:18;;;;;;;2.85;1.33;;;8.50;99.90;;;;;;4981980;28;20042;-81
2024/01/21 07:59:44;;;;;;;3.97;1.00;;;8.60;99.90;;;;;;4996447;28;20548;-80
2024/01/21 08:02:12;;;;;;;1.98;0.90;;;8.60;1.00;;;;;;4965287;28;20072;-80
2024/01/21 08:04:39;;;;;;;2.58;1.35;;;8.70;1.00;;;;;;5012959;28;20096;-79
2024/01/21 08:07:06;;;;;;;5.22;1.80;;;8.70;99.90;;;;;;4997423;28;20053;-80
2024/01/21 08:09:33;;;;;;;4.28;1.17;;;8.70;99.90;;;;;;4995624;28;20487;-79
2024/01/21 08:12:00;;;;;;;2.00;1.15;;;8.80;99.90;;;;;;4981341;28;20050;-80
2024/01/21 08:14:27;;;;;;;3.70;1.17;;;8.90;99.90;;;;;;4979293;28;20045;-80
2024/01/21 08:16:54;;;;;;;1.95;0.95;;;8.90;99.90;;;;;;4965703;28;20138;-80
2024/01/21 08:19:21;;;;;;;2.88;1.10;;;8.90;99.90;;;;;;4978201;28;20469;-80
2024/01/21 08:21:48;;;;;;;4.15;1.67;;;9.00;99.90;;;;;;4945818;28;20129;-81
2024/01/21 08:24:16;;;;;;;3.15;1.20;;;9.00;99.90;;;;;;4990243;28;20548;-80
2024/01/21 08:26:43;;;;;;;3.08;1.50;;;9.10;99.90;;;;;;4997744;28;20121;-81
2024/01/21 08:29:10;;;;;;;4.07;1.65;;;9.10;99.90;;;;;;4980335;28;20053;-80
2024/01/21 08:31:44;;;;;;;3.47;1.52;;;9.10;99.90;;;;;;4964653;28;20136;-80
2024/01/21 08:34:11;;;;;;;4.55;1.80;;;9.10;99.90;;;;;;4980491;28;20064;-80
2024/01/21 08:36:38;;;;;;;3.90;1.50;;;9.10;55.00;;;;;;5002998;28;20607;-79
2024/01/21 08:39:06;;;;;;;3.55;1.63;;;9.10;1.00;;;;;;4996379;28;20712;-81
2024/01/21 08:41:34;;;;;;;3.38;1.52;;;9.20;50.10;;;;;;4999061;28;20695;-81
2024/01/21 08:44:02;;;;;;;4.18;1.77;;;9.20;1.00;;;;;;4997684;28;20088;-80
2024/01/21 08:46:29;;;;;;;7.43;2.15;;;9.20;99.90;;;;;;4979761;28;20155;-81
2024/01/21 08:48:56;;;;;;;6.18;1.92;;;9.20;1.00;;;;;;5013117;28;20053;-81
2024/01/21 08:51:24;;;;;;;5.97;2.20;;;9.30;99.90;;;;;;5013755;28;20068;-81
2024/01/21 08:53:56;;;;;;;4.88;1.52;;;9.30;99.90;;;;;;5005843;28;20073;-80
2024/01/21 08:56:27;;;;;;;5.47;1.80;;;9.40;99.90;;;;;;4966559;28;20570;-81
2024/01/21 08:58:54;;;;;;;4.00;1.40;;;9.40;99.90;;;;;;4979788;28;20053;-81
2024/01/21 09:01:22;;;;;;;2.85;1.23;;;9.40;90.90;;;;;;4984100;28;20463;-81
2024/01/21 09:03:49;;;;;;;3.38;1.77;;;9.40;99.90;;;;;;4979837;28;20063;-82
2024/01/21 09:06:16;;;;;;;7.53;1.70;;;9.40;99.90;;;;;;4995665;28;20176;-82
2024/01/21 09:08:44;;;;;;;5.47;1.50;;;9.50;99.90;;;;;;4992081;28;20046;-81
2024/01/21 09:11:12;;;;;;;4.30;1.58;;;9.50;99.90;;;;;;4997349;28;20077;-82
2024/01/21 09:13:39;;;;;;;6.75;1.85;;;9.60;99.90;;;;;;4978012;28;20483;-80
2024/01/21 09:16:06;;;;;;;4.78;1.73;;;9.60;94.60;;;;;;4992904;28;20656;-80
2024/01/21 09:18:34;;;;;;;5.55;1.88;;;9.70;1.00;;;;;;5015113;28;20049;-80
2024/01/21 09:21:02;;;;;;;5.80;2.75;;;9.70;1.00;;;;;;4964890;28;20127;-80
2024/01/21 09:23:29;;;;;;;7.07;1.83;;;9.80;99.90;;;;;;4998082;28;20065;-81
2024/01/21 09:25:56;;;;;;;3.92;1.65;;;9.80;99.90;;;;;;4980627;28;20459;-81
2024/01/21 09:28:23;;;;;;;5.28;1.85;;;9.90;54.40;;;;;;4995270;28;20469;-81
2024/01/21 09:30:51;;;;;;;4.22;2.15;;;9.90;1.00;;;;;;4961734;28;20093;-80
2024/01/21 09:33:19;;;;;;;5.28;1.60;;;10.00;99.90;;;;;;4975530;28;20061;-80
2024/01/21 09:35:46;;;;;;;5.43;2.00;;;10.00;99.90;;;;;;4980611;28;20054;-80
2024/01/21 09:38:18;;;;;;;7.22;1.85;;;10.10;99.90;;;;;;4960874;28;20069;-81
2024/01/21 09:40:51;;;;;;;5.78;2.00;;;10.10;61.40;;;;;;4948916;28;20773;-80
2024/01/21 09:43:18;;;;;;;5.85;2.58;;;10.10;1.00;;;;;;4962874;28;20562;-80
2024/01/21 09:45:46;;;;;;;4.60;1.70;;;10.20;99.90;;;;;;4946618;28;20050;-81
2024/01/21 09:48:13;;;;;;;5.78;1.85;;;10.20;99.90;;;;;;4944850;28;20050;-80
2024/01/21 09:50:40;;;;;;;4.28;1.60;;;10.30;99.90;;;;;;4963656;28;20405;-81
2024/01/21 09:53:07;;;;;;;7.15;1.88;;;10.30;99.90;;;;;;4980004;28;20333;-80
2024/01/21 09:55:34;;;;;;;10.32;2.45;;;10.40;45.80;;;;;;4941179;28;20056;-80
2024/01/21 09:58:02;;;;;;;5.30;2.15;;;10.40;81.30;;;;;;4959861;28;20524;-82
2024/01/21 10:00:30;;;;;;;4.70;1.90;;;10.40;1.00;;;;;;4963686;28;20384;-79
2024/01/21 10:02:58;;;;;;;7.53;1.67;;;10.50;1.00;;;;;;4991999;28;20140;-80
2024/01/21 10:05:25;;;;;;;7.45;2.13;;;10.60;99.90;;;;;;4964122;28;20057;-80
2024/01/21 10:07:52;;;;;;;7.25;2.40;;;10.50;99.90;;;;;;4990730;28;20128;-81
2024/01/21 10:10:19;;;;;;;5.07;1.80;;;10.60;99.90;;;;;;4989324;28;20485;-80
2024/01/21 10:12:46;;;;;;;4.70;1.90;;;10.60;99.90;;;;;;4995382;28;20042;-80
2024/01/21 10:15:14;;;;;;;7.43;2.42;;;10.60;99.90;;;;;;4977908;28;20313;-80
2024/01/21 10:17:42;;;;;;;5.05;1.98;;;10.60;98.90;;;;;;4980062;28;20049;-80
2024/01/21 10:20:11;;;;;;;5.97;2.15;;;10.70;38.80;;;;;;4964141;28;20061;-80
2024/01/21 10:22:40;;;;;;;7.65;2.90;;;10.70;1.00;;;;;;4964305;28;20054;-80
2024/01/21 10:25:09;;;;;;;7.85;2.40;;;10.80;99.90;;;;;;4963172;28;20050;-80
2024/01/21 10:27:36;;;;;;;7.70;2.35;;;10.90;99.90;;;;;;4968018;28;20177;-80
2024/01/21 10:30:03;;;;;;;6.97;2.47;;;10.90;99.90;;;;;;4962745;28;20137;-81
2024/01/21 10:32:31;;;;;;;9.27;2.72;;;10.90;27.40;;;;;;4997283;28;20056;-80
2024/01/21 10:34:59;;;;;;;8.35;3.05;;;11.00;1.00;;;;;;4960868;28;20524;-80
2024/01/21 10:37:28;;;;;;;12.25;3.30;;;11.10;99.90;;;;;;4947150;28;20045;-80
2024/01/21 10:39:55;;;;;;;9.18;2.80;;;11.10;99.90;;;;;;4972374;28;20641;-79
2024/01/21 10:42:23;;;;;;;10.10;3.30;;;11.20;99.90;;;;;;4983140;28;20049;-80
2024/01/21 10:44:51;;;;;;;7.13;2.42;;;11.20;99.90;;;;;;4982497;28;20561;-81
2024/01/21 10:47:19;;;;;;;10.75;2.95;;;11.20;99.90;;;;;;4989431;28;20218;-81
2024/01/21 10:49:47;;;;;;;9.30;2.92;;;11.30;99.90;;;;;;4972627;28;20323;-80
2024/01/21 10:52:14;;;;;;;10.82;3.38;;;11.40;70.50;;;;;;4966843;28;20488;-80
2024/01/21 10:54:41;;;;;;;7.68;2.47;;;11.40;1.00;;;;;;4971658;28;20058;-81
2024/01/21 10:57:08;;;;;;;10.85;3.80;;;11.50;1.00;;;;;;4984165;28;20049;-80
2024/01/21 10:59:38;;;;;;;6.78;2.60;;;11.50;1.00;;;;;;5001089;28;20238;-80
2024/01/21 11:02:07;;;;;;;12.52;3.85;;;11.50;1.00;;;;;;4967521;28;20050;-81
2024/01/21 11:04:35;;;;;;;7.82;3.20;;;11.50;99.90;;;;;;4982717;28;20142;-81
2024/01/21 11:07:05;;;;;;;6.25;2.60;;;11.50;99.90;;;;;;5001053;28;20147;-81
2024/01/21 11:09:34;;;;;;;7.55;2.28;;;11.50;99.90;;;;;;4966872;28;20061;-80
2024/01/21 11:12:02;;;;;;;6.38;2.30;;;11.50;99.90;;;;;;4967281;28;20064;-81
2024/01/21 11:14:34;;;;;;;5.60;2.25;;;11.50;99.90;;;;;;4977515;28;20054;-81
2024/01/21 11:17:02;;;;;;;7.28;2.75;;;11.60;99.90;;;;;;4979728;28;20148;-83
2024/01/21 11:19:49;;;;;;;5.88;2.30;;;11.50;99.90;;;;;;4997508;28;20137;-80
2024/01/21 11:22:17;;;;;;;6.43;2.00;;;11.50;99.90;;;;;;4979539;28;20051;-80
2024/01/21 11:24:47;;;;;;;10.80;2.75;;;11.50;99.90;;;;;;4974747;28;20120;-82
2024/01/21 11:27:25;;;;;;;4.88;2.10;;;11.50;99.90;;;;;;4968721;28;20154;-81
2024/01/21 11:29:54;;;;;;;6.60;2.72;;;11.50;99.90;;;;;;4945236;28;20169;-81
2024/01/21 11:32:24;;;;;;;9.93;3.03;;;11.50;99.90;;;;;;4975750;28;20404;-80
2024/01/21 11:34:51;;;;;;;9.32;2.80;;;11.50;99.90;;;;;;4997123;28;20065;-80
2024/01/21 11:37:18;;;;;;;6.32;2.17;;;11.50;99.90;;;;;;4985780;28;20050;-80
2024/01/21 11:39:46;;;;;;;8.25;2.58;;;11.50;99.90;;;;;;4995323;28;20079;-80
2024/01/21 11:42:13;;;;;;;7.20;3.03;;;11.50;99.90;;;;;;4999727;28;20050;-80
2024/01/21 11:44:40;;;;;;;8.77;3.13;;;11.50;99.90;;;;;;4996659;28;20089;-80
2024/01/21 11:47:07;;;;;;;7.55;2.72;;;11.60;99.90;;;;;;4999233;28;20095;-81
2024/01/21 11:49:35;;;;;;;8.68;2.70;;;11.70;99.90;;;;;;4996182;28;20046;-80
2024/01/21 11:52:05;;;;;;;11.35;3.35;;;11.70;99.90;;;;;;4999903;28;20125;-81
2024/01/21 11:54:34;;;;;;;11.10;3.28;;;11.80;99.90;;;;;;4996490;28;20131;-81
2024/01/21 11:57:01;;;;;;;10.63;2.85;;;11.90;99.90;;;;;;4984188;28;20145;-81
2024/01/21 11:59:29;;;;;;;6.13;2.38;;;12.00;99.90;;;;;;4953095;28;20153;-80
2024/01/21 12:01:57;;;;;;;8.07;3.33;;;12.00;99.90;;;;;;4979180;28;20092;-81
2024/01/21 12:04:27;;;;;;;7.35;2.80;;;12.10;99.90;;;;;;4992283;28;20054;-81
2024/01/21 12:06:54;;;;;;;6.93;2.78;;;12.10;99.90;;;;;;4987692;28;20088;-81
2024/01/21 12:09:22;;;;;;;7.50;2.70;;;12.10;99.90;;;;;;4985733;28;20127;-81
2024/01/21 12:11:50;;;;;;;9.23;2.55;;;12.20;99.90;;;;;;4967908;28;20146;-81
2024/01/21 12:14:17;;;;;;;8.40;2.65;;;12.20;99.90;;;;;;4986528;28;20077;-81
2024/01/21 12:16:48;;;;;;;9.82;2.78;;;12.30;99.90;;;;;;4964511;28;20081;-81
2024/01/21 12:19:15;;;;;;;16.83;4.45;;;12.30;99.90;;;;;;4982271;28;20108;-81
2024/01/21 12:21:45;;;;;;;6.20;2.58;;;12.30;99.90;;;;;;4988525;28;20054;-81
2024/01/21 12:24:12;;;;;;;8.25;2.80;;;12.30;99.90;;;;;;4977089;28;20281;-81
2024/01/21 12:26:39;;;;;;;10.18;2.80;;;12.30;99.90;;;;;;4976688;28;20179;-82
2024/01/21 12:29:10;;;;;;;10.07;3.28;;;12.30;99.90;;;;;;4962441;28;20058;-81
2024/01/21 12:31:38;;;;;;;6.90;3.08;;;12.30;99.90;;;;;;4988613;28;20527;-81
2024/01/21 12:34:10;;;;;;;9.73;3.60;;;12.40;99.90;;;;;;4980529;28;20073;-81
2024/01/21 12:36:41;;;;;;;10.83;4.17;;;12.50;99.90;;;;;;4969128;28;20084;-81
2024/01/21 12:39:09;;;;;;;14.15;4.05;;;12.50;94.70;;;;;;4978708;28;20614;-81
2024/01/21 12:41:36;;;;;;;11.48;3.20;;;12.40;90.10;;;;;;4959772;28;20136;-81
2024/01/21 12:44:03;;;;;;;11.55;3.55;;;12.40;90.30;;;;;;4989731;28;20065;-81
2024/01/21 12:46:30;;;;;;;11.25;3.65;;;12.40;90.00;;;;;;4981732;28;20053;-81
2024/01/21 12:48:57;;;;;;;8.40;2.50;;;12.40;90.00;;;;;;4960478;28;20092;-80
2024/01/21 12:51:25;;;;;;;5.72;2.60;;;12.40;90.10;;;;;;4963079;28;20077;-81
2024/01/21 12:53:53;;;;;;;6.65;2.75;;;12.40;88.00;;;;;;4962364;28;20053;-81
2024/01/21 12:56:20;;;;;;;12.32;3.15;;;12.40;85.20;;;;;;4950075;28;20399;-81
2024/01/21 12:58:47;;;;;;;9.75;3.47;;;12.50;81.30;;;;;;4976688;28;20054;-81
2024/01/21 13:01:15;;;;;;;10.23;3.45;;;12.40;68.90;;;;;;4979904;28;20077;-81